In Rescue
 
Open Full Screen Window  High Contrast Mode
Wind Gusting 17 knots
08
April 19, 2021 6:40 PM CDT
Weather Information
Wind Direction
  330 °
Wind Speed
  08 kt (9 mph)
Wind Gust
  17 kt (20 mph)
Altimeter
29.97 in
Visibility
10 SM
Temperature
02° C
36° F
Dewpoint
-12° C
10° F
Humidity
35%
1hr Rain Fall
00.00 in.
24hr Rain Fall
00.00 in.
Sky Condition
Scattered @ 6,500 ft
VFR

METAR KEVM 192340Z AUTO 33008G17KT 10SM SCT065 02/M12 A2997 RMK AO2

FAA Disclaimer: The data displayed is for advisory purposes only and is not to be used for flight planning or operations.